Time;durP1;ratioP1;P1;durP2;ratioP2;P2;SDS_P1;SDS_P2;PMS_P1;PMS_P2;Temp;Humidity;BMP_temperature;BMP_pressure;BME280_temperature;BME280_humidity;BME280_pressure;Samples;Min_cycle;Max_cycle;Signal;HPM_P1;HPM_P2
2023/04/15 00:01:36;;;;;;;5.43;1.40;;;;;;;;;;4954595;28;20445;-75
2023/04/15 00:04:02;;;;;;;4.82;1.55;;;;;;;;;;4954298;28;20084;-75
2023/04/15 00:06:28;;;;;;;3.97;1.20;;;;;;;;;;4954428;28;20039;-76
2023/04/15 00:08:54;;;;;;;4.60;1.75;;;;;;;;;;4953943;28;20081;-76
2023/04/15 00:11:20;;;;;;;2.53;1.15;;;;;;;;;;4954416;28;20039;-76
2023/04/15 00:13:46;;;;;;;5.78;2.17;;;;;;;;;;4953058;28;20543;-76
2023/04/15 00:16:12;;;;;;;3.78;1.10;;;;;;;;;;4954149;28;20035;-76
2023/04/15 00:18:38;;;;;;;2.50;1.05;;;;;;;;;;4953648;28;20473;-76
2023/04/15 00:21:04;;;;;;;4.13;1.10;;;;;;;;;;4954228;28;20031;-76
2023/04/15 00:23:31;;;;;;;1.85;0.93;;;;;;;;;;4954343;28;20441;-77
2023/04/15 00:25:56;;;;;;;4.78;1.20;;;;;;;;;;4954179;29;20046;-76
2023/04/15 00:28:22;;;;;;;4.93;1.20;;;;;;;;;;4952528;28;20038;-77
2023/04/15 00:30:49;;;;;;;2.97;1.20;;;;;;;;;;4952813;28;20035;-77
2023/04/15 00:33:18;;;;;;;2.83;1.00;;;;;;;;;;4952936;29;20417;-77
2023/04/15 00:35:44;;;;;;;4.35;1.13;;;;;;;;;;4953037;28;20035;-77
2023/04/15 00:38:10;;;;;;;4.88;1.30;;;;;;;;;;4973561;28;20038;-74
2023/04/15 00:40:36;;;;;;;3.38;1.20;;;;;;;;;;4993009;28;20039;-75
2023/04/15 00:43:04;;;;;;;6.35;1.40;;;;;;;;;;4991533;28;20057;-75
2023/04/15 00:45:30;;;;;;;2.83;1.27;;;;;;;;;;4990701;28;20039;-77
2023/04/15 00:47:57;;;;;;;7.03;1.65;;;;;;;;;;5008476;28;20032;-75
2023/04/15 00:50:23;;;;;;;6.53;1.25;;;;;;;;;;4991218;28;20138;-75
2023/04/15 00:52:48;;;;;;;7.20;1.30;;;;;;;;;;4991469;28;20049;-75
2023/04/15 00:55:14;;;;;;;3.08;0.95;;;;;;;;;;4991227;28;20069;-75
2023/04/15 00:57:40;;;;;;;2.33;1.10;;;;;;;;;;4992036;28;20026;-76
2023/04/15 01:00:10;;;;;;;2.83;1.13;;;;;;;;;;4990766;28;20041;-77
2023/04/15 01:02:37;;;;;;;2.15;1.10;;;;;;;;;;4992497;28;20033;-75
2023/04/15 01:05:04;;;;;;;3.35;1.27;;;;;;;;;;5007775;28;20039;-77
2023/04/15 01:07:30;;;;;;;4.05;1.40;;;;;;;;;;4991110;28;20065;-74
2023/04/15 01:09:58;;;;;;;6.68;1.20;;;;;;;;;;5007335;28;20045;-76
2023/04/15 01:12:26;;;;;;;2.75;1.05;;;;;;;;;;4991133;28;20034;-76
2023/04/15 01:14:53;;;;;;;4.70;0.90;;;;;;;;;;4991008;28;20061;-76
2023/04/15 01:17:21;;;;;;;3.97;1.13;;;;;;;;;;4991019;28;20416;-77
2023/04/15 01:19:47;;;;;;;2.67;1.20;;;;;;;;;;4989793;28;20498;-77
2023/04/15 01:22:15;;;;;;;4.97;1.40;;;;;;;;;;4991245;28;20039;-77
2023/04/15 01:24:49;;;;;;;6.15;1.60;;;;;;;;;;5020174;28;20053;-75
2023/04/15 01:27:16;;;;;;;3.47;1.25;;;;;;;;;;4990112;28;20053;-77
2023/04/15 01:29:41;;;;;;;3.47;1.30;;;;;;;;;;4991695;28;20572;-76
2023/04/15 01:32:07;;;;;;;4.35;1.20;;;;;;;;;;4990814;28;20057;-76
2023/04/15 01:34:33;;;;;;;2.70;1.15;;;;;;;;;;4996213;28;20120;-76
2023/04/15 01:36:59;;;;;;;6.32;1.00;;;;;;;;;;4993606;28;20589;-77
2023/04/15 01:39:26;;;;;;;5.28;1.05;;;;;;;;;;5009400;28;20358;-77
2023/04/15 01:41:56;;;;;;;6.35;1.20;;;;;;;;;;5011092;28;20109;-75
2023/04/15 01:44:23;;;;;;;3.03;1.00;;;;;;;;;;5011058;28;20029;-76
2023/04/15 01:46:49;;;;;;;4.25;1.33;;;;;;;;;;5009324;28;20403;-77
2023/04/15 01:49:15;;;;;;;3.03;1.10;;;;;;;;;;5005507;28;20097;-76
2023/04/15 01:51:41;;;;;;;4.45;1.00;;;;;;;;;;4990115;28;20022;-75
2023/04/15 01:54:07;;;;;;;6.43;1.30;;;;;;;;;;4990238;28;20480;-76
2023/04/15 01:56:34;;;;;;;2.83;1.42;;;;;;;;;;5008425;28;20064;-76
2023/04/15 01:59:00;;;;;;;3.70;0.93;;;;;;;;;;4993556;28;20133;-76
2023/04/15 02:01:26;;;;;;;4.55;1.10;;;;;;;;;;4993592;28;20042;-76
2023/04/15 02:03:52;;;;;;;3.83;1.00;;;;;;;;;;4993910;28;20046;-76
2023/04/15 02:06:18;;;;;;;3.00;0.90;;;;;;;;;;4994333;28;20105;-76
2023/04/15 02:08:44;;;;;;;3.78;0.98;;;;;;;;;;4992883;28;20038;-75
2023/04/15 02:11:09;;;;;;;3.90;1.00;;;;;;;;;;4993359;28;20034;-76
2023/04/15 02:13:35;;;;;;;4.50;1.58;;;;;;;;;;4993375;28;20096;-76
2023/04/15 02:16:02;;;;;;;5.30;1.40;;;;;;;;;;4994584;28;20056;-77
2023/04/15 02:18:28;;;;;;;12.02;1.65;;;;;;;;;;4994510;28;20038;-76
2023/04/15 02:20:57;;;;;;;3.13;1.20;;;;;;;;;;4993272;28;20716;-76
2023/04/15 02:23:23;;;;;;;4.03;1.20;;;;;;;;;;4994073;28;20034;-76
2023/04/15 02:25:49;;;;;;;5.93;1.25;;;;;;;;;;4995054;28;20034;-75
2023/04/15 02:28:15;;;;;;;6.57;1.60;;;;;;;;;;4993401;28;20034;-75
2023/04/15 02:30:47;;;;;;;4.05;1.40;;;;;;;;;;4993314;28;20033;-76
2023/04/15 02:33:13;;;;;;;5.90;1.30;;;;;;;;;;4993100;28;20381;-75
2023/04/15 02:35:43;;;;;;;5.22;1.30;;;;;;;;;;5008386;28;20121;-76
2023/04/15 02:38:08;;;;;;;6.88;1.50;;;;;;;;;;4994407;28;20038;-76
2023/04/15 02:40:34;;;;;;;8.65;1.63;;;;;;;;;;4993741;28;20023;-75
2023/04/15 02:43:01;;;;;;;1.85;1.00;;;;;;;;;;4993520;28;20030;-76
2023/04/15 02:45:28;;;;;;;5.68;1.30;;;;;;;;;;4993650;28;20512;-76
2023/04/15 02:47:54;;;;;;;9.00;2.13;;;;;;;;;;4990301;28;20030;-77
2023/04/15 02:50:19;;;;;;;3.20;1.20;;;;;;;;;;4993061;28;20056;-76
2023/04/15 02:52:47;;;;;;;5.93;1.60;;;;;;;;;;4992873;28;20030;-76
2023/04/15 02:55:12;;;;;;;5.32;1.60;;;;;;;;;;4977368;28;20022;-76
2023/04/15 02:57:40;;;;;;;7.28;1.67;;;;;;;;;;4993371;28;20049;-76
2023/04/15 03:00:10;;;;;;;5.63;1.30;;;;;;;;;;4990246;28;20106;-76
2023/04/15 03:02:39;;;;;;;6.70;1.85;;;;;;;;;;4992289;28;20034;-77
2023/04/15 03:05:06;;;;;;;3.95;1.05;;;;;;;;;;5009426;28;20029;-77
2023/04/15 03:07:32;;;;;;;10.52;1.20;;;;;;;;;;4991040;28;20038;-75
2023/04/15 03:09:59;;;;;;;5.95;1.20;;;;;;;;;;4993082;28;20117;-75
2023/04/15 03:12:25;;;;;;;4.20;1.17;;;;;;;;;;4992931;28;20037;-76
2023/04/15 03:14:54;;;;;;;2.75;1.05;;;;;;;;;;5009409;28;20052;-76
2023/04/15 03:17:26;;;;;;;4.57;1.30;;;;;;;;;;4992221;28;20031;-75
2023/04/15 03:19:52;;;;;;;3.15;1.13;;;;;;;;;;4989646;28;20038;-77
2023/04/15 03:22:18;;;;;;;4.50;1.35;;;;;;;;;;4990874;28;20022;-76
2023/04/15 03:24:45;;;;;;;1.70;0.98;;;;;;;;;;4989717;28;20057;-76
2023/04/15 03:27:12;;;;;;;3.13;1.20;;;;;;;;;;4989757;28;20025;-76
2023/04/15 03:29:39;;;;;;;4.72;1.15;;;;;;;;;;4989475;28;20493;-76
2023/04/15 03:32:06;;;;;;;3.17;1.10;;;;;;;;;;4989093;28;20022;-76
2023/04/15 03:34:33;;;;;;;3.58;1.15;;;;;;;;;;4992642;28;20054;-76
2023/04/15 03:36:59;;;;;;;3.83;1.30;;;;;;;;;;4994237;28;20018;-76
2023/04/15 03:39:25;;;;;;;6.40;1.52;;;;;;;;;;4992442;28;20554;-76
2023/04/15 03:41:51;;;;;;;4.43;1.30;;;;;;;;;;4993656;28;20131;-75
2023/04/15 03:44:17;;;;;;;5.88;1.73;;;;;;;;;;4993584;28;20076;-76
2023/04/15 03:46:43;;;;;;;5.07;1.98;;;;;;;;;;4989008;28;20545;-75
2023/04/15 03:49:10;;;;;;;4.35;1.10;;;;;;;;;;4988660;28;20393;-75
2023/04/15 03:51:35;;;;;;;3.67;1.00;;;;;;;;;;4985499;28;20022;-77
2023/04/15 03:54:01;;;;;;;2.38;0.80;;;;;;;;;;4993577;28;20141;-76
2023/04/15 03:56:27;;;;;;;3.70;1.10;;;;;;;;;;4993559;28;20022;-77
2023/04/15 03:58:53;;;;;;;3.47;1.10;;;;;;;;;;4988821;28;20038;-77
2023/04/15 04:01:20;;;;;;;4.28;1.27;;;;;;;;;;4990969;28;20014;-76
2023/04/15 04:03:46;;;;;;;7.35;1.45;;;;;;;;;;4993466;28;20040;-76
2023/04/15 04:06:12;;;;;;;4.43;1.30;;;;;;;;;;4993360;28;20026;-76
2023/04/15 04:08:39;;;;;;;4.75;1.40;;;;;;;;;;4993136;28;20038;-77
2023/04/15 04:11:05;;;;;;;6.38;1.50;;;;;;;;;;4993269;28;20373;-76
2023/04/15 04:13:31;;;;;;;7.90;1.83;;;;;;;;;;4991184;28;20038;-76
2023/04/15 04:15:57;;;;;;;5.68;1.70;;;;;;;;;;4993345;28;20022;-76
2023/04/15 04:18:22;;;;;;;7.25;2.00;;;;;;;;;;4992691;28;20038;-76
2023/04/15 04:20:48;;;;;;;13.82;2.13;;;;;;;;;;4992546;28;20108;-76
2023/04/15 04:23:15;;;;;;;6.47;1.90;;;;;;;;;;4992985;28;20046;-76
2023/04/15 04:25:42;;;;;;;4.22;1.63;;;;;;;;;;4993078;28;20049;-77
2023/04/15 04:28:08;;;;;;;5.00;1.40;;;;;;;;;;4992942;28;20049;-77
2023/04/15 04:30:34;;;;;;;6.35;1.50;;;;;;;;;;4993042;28;20512;-75
2023/04/15 04:33:00;;;;;;;6.45;1.80;;;;;;;;;;4992846;28;20125;-76
2023/04/15 04:35:26;;;;;;;8.60;1.77;;;;;;;;;;4992945;28;20101;-76
2023/04/15 04:37:52;;;;;;;4.90;2.03;;;;;;;;;;4992803;28;20117;-76
2023/04/15 04:40:18;;;;;;;5.68;1.90;;;;;;;;;;5007983;28;20022;-76
2023/04/15 04:42:44;;;;;;;6.55;1.88;;;;;;;;;;4992803;28;20077;-76
2023/04/15 04:45:10;;;;;;;5.50;1.80;;;;;;;;;;4992136;28;20570;-77
2023/04/15 04:47:35;;;;;;;6.60;1.50;;;;;;;;;;4991361;28;20085;-77
2023/04/15 04:50:02;;;;;;;7.13;2.08;;;;;;;;;;4992726;28;20053;-77
2023/04/15 04:52:28;;;;;;;15.43;2.72;;;;;;;;;;4992690;28;20495;-76
2023/04/15 04:54:55;;;;;;;7.75;2.05;;;;;;;;;;4992627;28;20054;-78
2023/04/15 04:57:20;;;;;;;6.68;2.53;;;;;;;;;;4992206;28;20042;-79
2023/04/15 04:59:46;;;;;;;8.40;2.05;;;;;;;;;;4992475;28;20025;-77
2023/04/15 05:02:12;;;;;;;5.03;2.00;;;;;;;;;;4990905;28;20132;-78
2023/04/15 05:04:38;;;;;;;5.40;2.30;;;;;;;;;;4992631;28;20049;-78
2023/04/15 05:07:04;;;;;;;6.18;2.30;;;;;;;;;;4992355;28;20030;-77
2023/04/15 05:09:31;;;;;;;5.82;2.00;;;;;;;;;;4992540;28;20027;-77
2023/04/15 05:11:58;;;;;;;5.13;2.15;;;;;;;;;;4987820;28;20388;-77
2023/04/15 05:14:23;;;;;;;6.60;2.28;;;;;;;;;;4990346;28;20041;-78
2023/04/15 05:16:50;;;;;;;6.65;2.08;;;;;;;;;;4992704;28;20038;-78
2023/04/15 05:19:15;;;;;;;6.43;2.38;;;;;;;;;;4992369;28;20495;-77
2023/04/15 05:21:42;;;;;;;6.00;1.80;;;;;;;;;;4991471;28;20133;-77
2023/04/15 05:24:10;;;;;;;8.10;2.10;;;;;;;;;;4992490;28;20388;-77
2023/04/15 05:26:37;;;;;;;5.95;1.90;;;;;;;;;;4992313;28;20030;-77
2023/04/15 05:29:03;;;;;;;5.78;2.05;;;;;;;;;;4992122;28;20123;-78
2023/04/15 05:31:29;;;;;;;7.65;1.83;;;;;;;;;;4976950;28;20042;-77
2023/04/15 05:33:54;;;;;;;4.30;1.60;;;;;;;;;;4996400;28;20018;-78
2023/04/15 05:36:22;;;;;;;5.03;1.60;;;;;;;;;;4996348;28;20050;-78
2023/04/15 05:38:49;;;;;;;5.40;1.90;;;;;;;;;;4996091;28;20077;-77
2023/04/15 05:41:15;;;;;;;3.97;1.70;;;;;;;;;;5010540;28;20384;-77
2023/04/15 05:43:42;;;;;;;7.95;2.00;;;;;;;;;;4995198;28;20026;-78
2023/04/15 05:46:09;;;;;;;4.95;1.65;;;;;;;;;;4997766;28;20432;-78
2023/04/15 05:48:36;;;;;;;4.03;1.60;;;;;;;;;;4997666;28;20145;-76
2023/04/15 05:51:02;;;;;;;7.32;1.95;;;;;;;;;;4996115;28;20030;-77
2023/04/15 05:53:28;;;;;;;5.97;1.75;;;;;;;;;;4996181;28;20036;-77
2023/04/15 05:55:54;;;;;;;5.05;1.85;;;;;;;;;;4995992;28;20034;-76
2023/04/15 05:58:20;;;;;;;4.80;1.80;;;;;;;;;;4994579;28;20041;-77
2023/04/15 06:00:46;;;;;;;4.65;1.90;;;;;;;;;;4995260;28;20084;-75
2023/04/15 06:03:12;;;;;;;6.75;1.80;;;;;;;;;;4995251;28;20019;-79
2023/04/15 06:05:37;;;;;;;9.48;2.40;;;;;;;;;;4995700;28;20088;-77
2023/04/15 06:08:03;;;;;;;3.55;1.60;;;;;;;;;;4995411;28;20542;-77
2023/04/15 06:10:29;;;;;;;6.78;2.30;;;;;;;;;;4994870;28;20554;-76
2023/04/15 06:12:55;;;;;;;4.70;1.75;;;;;;;;;;5010035;28;20042;-78
2023/04/15 06:15:22;;;;;;;3.95;2.05;;;;;;;;;;4995308;28;20138;-76
2023/04/15 06:17:48;;;;;;;8.35;1.95;;;;;;;;;;4995051;28;20439;-78
2023/04/15 06:20:15;;;;;;;5.22;1.80;;;;;;;;;;4995069;28;20381;-76
2023/04/15 06:22:42;;;;;;;3.58;1.73;;;;;;;;;;5009756;28;20026;-76
2023/04/15 06:25:08;;;;;;;6.63;2.17;;;;;;;;;;5009854;28;20034;-77
2023/04/15 06:27:34;;;;;;;9.15;3.53;;;;;;;;;;4997936;28;20028;-76
2023/04/15 06:30:00;;;;;;;5.65;1.80;;;;;;;;;;5005834;28;20077;-77
2023/04/15 06:32:26;;;;;;;4.60;2.00;;;;;;;;;;5021964;28;20045;-76
2023/04/15 06:34:52;;;;;;;6.30;2.53;;;;;;;;;;5003257;28;20046;-77
2023/04/15 06:37:18;;;;;;;9.15;3.00;;;;;;;;;;4999908;28;20037;-76
2023/04/15 06:39:44;;;;;;;7.50;2.85;;;;;;;;;;4996323;28;20121;-77
2023/04/15 06:42:10;;;;;;;7.40;2.58;;;;;;;;;;4998755;28;20034;-76
2023/04/15 06:44:37;;;;;;;4.97;2.10;;;;;;;;;;5004664;28;20517;-75
2023/04/15 06:47:02;;;;;;;6.20;2.20;;;;;;;;;;4999538;28;20641;-77
2023/04/15 06:49:28;;;;;;;9.38;2.60;;;;;;;;;;4995319;28;20092;-76
2023/04/15 06:51:54;;;;;;;7.05;1.90;;;;;;;;;;4995939;28;20474;-77
2023/04/15 06:54:20;;;;;;;2.28;1.10;;;;;;;;;;4994717;28;20030;-75
2023/04/15 06:56:46;;;;;;;5.15;1.70;;;;;;;;;;4994434;28;20504;-76
2023/04/15 06:59:13;;;;;;;7.40;1.98;;;;;;;;;;4994480;28;20072;-76
2023/04/15 07:01:42;;;;;;;3.13;1.42;;;;;;;;;;4994272;28;20018;-78
2023/04/15 07:04:08;;;;;;;7.72;2.30;;;;;;;;;;4994690;28;20041;-77
2023/04/15 07:06:34;;;;;;;3.97;1.70;;;;;;;;;;4994747;28;20026;-76
2023/04/15 07:09:01;;;;;;;6.28;2.08;;;;;;;;;;4992718;28;20034;-78
2023/04/15 07:11:27;;;;;;;5.45;2.10;;;;;;;;;;5009124;28;20391;-78
2023/04/15 07:13:56;;;;;;;4.32;1.40;;;;;;;;;;4993402;28;20045;-76
2023/04/15 07:16:22;;;;;;;7.75;1.60;;;;;;;;;;4993710;28;20156;-77
2023/04/15 07:18:49;;;;;;;4.85;1.40;;;;;;;;;;4993696;28;20097;-78
2023/04/15 07:21:16;;;;;;;4.50;1.33;;;;;;;;;;4993801;28;20022;-78
2023/04/15 07:23:43;;;;;;;5.10;1.20;;;;;;;;;;4993734;28;20064;-77
2023/04/15 07:26:10;;;;;;;9.68;1.92;;;;;;;;;;4992373;28;20022;-77
2023/04/15 07:28:37;;;;;;;2.67;1.20;;;;;;;;;;4993307;28;20042;-78
2023/04/15 07:31:04;;;;;;;4.63;1.35;;;;;;;;;;5008385;28;20105;-79
2023/04/15 07:33:30;;;;;;;5.18;1.20;;;;;;;;;;4993876;28;20455;-78
2023/04/15 07:35:56;;;;;;;4.78;1.52;;;;;;;;;;4994541;28;20026;-77
2023/04/15 07:38:22;;;;;;;5.93;1.20;;;;;;;;;;4993122;28;20065;-77
2023/04/15 07:40:50;;;;;;;7.30;3.30;;;;;;;;;;4992616;28;20484;-80
2023/04/15 07:43:16;;;;;;;9.15;2.42;;;;;;;;;;4993979;28;20049;-80
2023/04/15 07:45:42;;;;;;;3.38;1.60;;;;;;;;;;4993715;28;20034;-79
2023/04/15 07:48:08;;;;;;;4.38;1.30;;;;;;;;;;4993462;28;20041;-79
2023/04/15 07:50:35;;;;;;;2.30;0.98;;;;;;;;;;4992661;28;20030;-80
2023/04/15 07:53:02;;;;;;;6.35;2.45;;;;;;;;;;4993075;28;20132;-80
2023/04/15 07:55:29;;;;;;;4.15;1.10;;;;;;;;;;4993472;28;20153;-81
2023/04/15 07:57:56;;;;;;;3.55;1.25;;;;;;;;;;4992764;28;20069;-82
2023/04/15 08:00:23;;;;;;;3.72;1.25;;;;;;;;;;4993027;28;20397;-79
2023/04/15 08:02:52;;;;;;;4.38;1.30;;;;;;;;;;4993139;28;20136;-79
2023/04/15 08:05:19;;;;;;;5.03;1.30;;;;;;;;;;4991615;28;20030;-79
2023/04/15 08:07:45;;;;;;;5.18;1.67;;;;;;;;;;4991569;28;20188;-81
2023/04/15 08:10:11;;;;;;;4.53;1.30;;;;;;;;;;4991519;28;20041;-79
2023/04/15 08:12:37;;;;;;;3.35;1.98;;;;;;;;;;4992616;28;20038;-79
2023/04/15 08:15:04;;;;;;;3.70;1.23;;;;;;;;;;4992897;28;20038;-79
2023/04/15 08:17:31;;;;;;;5.53;1.10;;;;;;;;;;4990972;28;20432;-81
2023/04/15 08:19:56;;;;;;;4.82;1.25;;;;;;;;;;4975286;28;20026;-78
2023/04/15 08:22:26;;;;;;;4.40;1.20;;;;;;;;;;4991388;28;20490;-81
2023/04/15 08:24:52;;;;;;;4.20;1.73;;;;;;;;;;4992421;28;20033;-81
2023/04/15 08:27:18;;;;;;;5.45;1.48;;;;;;;;;;4975284;28;20065;-80
2023/04/15 08:29:46;;;;;;;5.10;1.30;;;;;;;;;;4992382;28;20467;-80
2023/04/15 08:32:13;;;;;;;3.45;0.93;;;;;;;;;;4990916;28;20050;-80
2023/04/15 08:34:39;;;;;;;3.17;0.80;;;;;;;;;;4992373;28;20928;-80
2023/04/15 08:37:05;;;;;;;5.00;1.50;;;;;;;;;;4991172;28;20121;-80
2023/04/15 08:39:32;;;;;;;3.55;1.30;;;;;;;;;;4991998;28;20037;-80
2023/04/15 08:42:08;;;;;;;2.22;1.15;;;;;;;;;;4992280;28;20030;-80
2023/04/15 08:44:38;;;;;;;6.32;1.65;;;;;;;;;;4992141;28;20121;-78
2023/04/15 08:47:07;;;;;;;4.30;1.25;;;;;;;;;;5006964;28;20089;-81
2023/04/15 08:49:37;;;;;;;5.30;1.40;;;;;;;;;;4992996;28;20030;-80
2023/04/15 08:52:05;;;;;;;7.32;1.58;;;;;;;;;;4992782;28;20054;-79
2023/04/15 08:54:39;;;;;;;6.43;1.33;;;;;;;;;;4992190;28;20453;-80
2023/04/15 08:57:07;;;;;;;3.78;1.42;;;;;;;;;;4990856;28;20022;-80
2023/04/15 08:59:32;;;;;;;4.55;1.13;;;;;;;;;;4992341;28;20042;-80
2023/04/15 09:01:59;;;;;;;4.85;1.23;;;;;;;;;;5007626;28;20037;-80
2023/04/15 09:04:27;;;;;;;4.80;1.50;;;;;;;;;;4991400;28;20526;-77
2023/04/15 09:06:52;;;;;;;7.07;1.20;;;;;;;;;;4990058;28;20113;-77
2023/04/15 09:09:19;;;;;;;6.63;1.95;;;;;;;;;;5006545;28;20113;-78
2023/04/15 09:11:48;;;;;;;6.25;1.55;;;;;;;;;;4973174;28;20030;-78
2023/04/15 09:14:15;;;;;;;4.63;1.27;;;;;;;;;;4992133;28;20051;-78
2023/04/15 09:16:57;;;;;;;5.90;2.40;;;;;;;;;;4991695;28;20085;-77
2023/04/15 09:19:24;;;;;;;4.75;1.30;;;;;;;;;;4991924;28;20120;-78
2023/04/15 09:21:57;;;;;;;2.20;1.02;;;;;;;;;;4991816;28;20056;-79
2023/04/15 09:24:24;;;;;;;;;;;;;;;;;;4990754;28;20035;-77
2023/04/15 09:26:56;;;;;;;1.88;0.80;;;;;;;;;;4992229;28;19913;-77
2023/04/15 09:29:25;;;;;;;4.40;0.90;;;;;;;;;;4990753;28;20092;-76
2023/04/15 09:31:52;;;;;;;1.77;0.65;;;;;;;;;;5007125;28;20551;-78
2023/04/15 09:34:35;;;;;;;2.58;1.02;;;;;;;;;;4991863;28;20030;-76
2023/04/15 09:37:01;;;;;;;4.72;0.90;;;;;;;;;;4990200;28;20045;-78
2023/04/15 09:39:27;;;;;;;3.70;0.93;;;;;;;;;;5005248;28;20030;-77
2023/04/15 09:42:06;;;;;;;3.00;1.13;;;;;;;;;;4990692;28;20038;-80
2023/04/15 09:44:32;;;;;;;4.43;1.50;;;;;;;;;;4992076;28;20172;-78
2023/04/15 09:46:58;;;;;;;3.42;0.90;;;;;;;;;;4991324;28;20508;-78
2023/04/15 09:49:24;;;;;;;6.80;1.20;;;;;;;;;;5005337;28;20042;-77
2023/04/15 09:51:50;;;;;;;4.72;1.00;;;;;;;;;;4990289;28;20045;-77
2023/04/15 09:54:23;;;;;;;3.28;1.15;;;;;;;;;;4988142;28;20041;-76
2023/04/15 09:56:49;;;;;;;7.47;2.33;;;;;;;;;;4984642;28;20048;-77
2023/04/15 09:59:15;;;;;;;4.20;1.48;;;;;;;;;;4990069;28;20590;-79
2023/04/15 10:01:43;;;;;;;11.00;1.10;;;;;;;;;;4990656;28;20038;-81
2023/04/15 10:04:09;;;;;;;2.10;1.02;;;;;;;;;;5006262;28;20089;-80
2023/04/15 10:06:36;;;;;;;5.43;1.25;;;;;;;;;;4991122;28;20116;-82
2023/04/15 10:09:02;;;;;;;5.65;1.50;;;;;;;;;;4991350;28;20484;-82
2023/04/15 10:11:30;;;;;;;3.05;0.90;;;;;;;;;;4991446;28;20081;-82
2023/04/15 10:13:57;;;;;;;5.55;0.98;;;;;;;;;;4993135;28;20026;-82
2023/04/15 10:16:27;;;;;;;5.20;1.50;;;;;;;;;;4992267;28;20038;-81
2023/04/15 10:18:57;;;;;;;3.72;1.00;;;;;;;;;;4994845;28;20125;-83
2023/04/15 10:21:23;;;;;;;5.05;1.60;;;;;;;;;;4995094;28;20608;-77
2023/04/15 10:23:50;;;;;;;3.20;1.15;;;;;;;;;;5009617;28;20050;-80
2023/04/15 10:26:16;;;;;;;3.63;1.17;;;;;;;;;;4994649;28;20109;-78
2023/04/15 10:28:46;;;;;;;3.83;1.35;;;;;;;;;;4994486;28;20029;-77
2023/04/15 10:31:13;;;;;;;4.40;1.30;;;;;;;;;;4993199;28;20041;-78
2023/04/15 10:33:41;;;;;;;3.75;1.00;;;;;;;;;;4994506;28;20026;-79
2023/04/15 10:36:07;;;;;;;3.90;1.13;;;;;;;;;;4989681;28;20105;-78
2023/04/15 10:38:42;;;;;;;3.55;1.15;;;;;;;;;;4997127;28;20500;-79
2023/04/15 10:41:20;;;;;;;6.13;1.25;;;;;;;;;;4985761;28;20031;-78
2023/04/15 10:44:03;;;;;;;3.95;1.20;;;;;;;;;;4995048;28;20122;-79
2023/04/15 10:46:42;;;;;;;1.92;1.05;;;;;;;;;;4974487;28;20444;-79
2023/04/15 10:49:14;;;;;;;3.70;1.10;;;;;;;;;;4990206;28;20038;-78
2023/04/15 10:51:45;;;;;;;1.08;0.60;;;;;;;;;;4992006;28;20354;-79
2023/04/15 10:54:23;;;;;;;2.60;1.00;;;;;;;;;;4994004;28;20026;-78
2023/04/15 10:57:05;;;;;;;3.25;0.90;;;;;;;;;;4992858;28;20090;-77
2023/04/15 10:59:57;;;;;;;6.20;1.73;;;;;;;;;;4995212;28;20031;-79
2023/04/15 11:02:43;;;;;;;4.05;1.00;;;;;;;;;;4994548;28;20042;-78
2023/04/15 11:05:10;;;;;;;3.00;0.90;;;;;;;;;;5009182;28;20492;-78
2023/04/15 11:07:52;;;;;;;5.25;1.30;;;;;;;;;;4974737;28;20042;-77
2023/04/15 11:10:28;;;;;;;6.28;1.92;;;;;;;;;;4994027;28;20062;-78
2023/04/15 11:13:15;;;;;;;3.25;1.40;;;;;;;;;;4987638;28;20046;-76
2023/04/15 11:15:46;;;;;;;6.63;1.35;;;;;;;;;;4995128;28;20075;-78
2023/04/15 11:18:15;;;;;;;2.63;1.30;;;;;;;;;;4994208;28;20026;-79
2023/04/15 11:20:50;;;;;;;4.35;1.20;;;;;;;;;;4993219;28;20058;-77
2023/04/15 11:23:26;;;;;;;2.95;1.05;;;;;;;;;;5008749;28;20365;-78
2023/04/15 11:25:58;;;;;;;5.05;1.10;;;;;;;;;;4987035;28;20022;-78
2023/04/15 11:28:30;;;;;;;6.82;1.02;;;;;;;;;;4992797;28;20040;-78
2023/04/15 11:30:56;;;;;;;3.97;1.02;;;;;;;;;;4987056;28;20038;-76
2023/04/15 11:33:24;;;;;;;3.78;0.98;;;;;;;;;;4993583;28;20412;-77
2023/04/15 11:35:55;;;;;;;4.32;1.08;;;;;;;;;;5011293;28;20022;-77
2023/04/15 11:38:21;;;;;;;2.50;0.90;;;;;;;;;;4993656;28;20108;-78
2023/04/15 11:40:49;;;;;;;2.30;0.90;;;;;;;;;;4993477;28;20111;-78
2023/04/15 11:43:19;;;;;;;2.22;0.90;;;;;;;;;;4989321;28;20154;-78
2023/04/15 11:45:55;;;;;;;2.75;1.00;;;;;;;;;;5000615;28;20480;-77
2023/04/15 11:48:24;;;;;;;3.72;1.27;;;;;;;;;;4993410;28;20034;-78
2023/04/15 11:50:59;;;;;;;10.77;1.83;;;;;;;;;;4991310;28;20200;-77
2023/04/15 11:53:37;;;;;;;3.13;1.05;;;;;;;;;;4992160;28;20041;-78
2023/04/15 11:56:04;;;;;;;4.15;1.10;;;;;;;;;;4991743;28;20042;-78
2023/04/15 11:58:34;;;;;;;3.55;0.90;;;;;;;;;;4975398;28;20026;-78
2023/04/15 12:01:01;;;;;;;6.90;1.10;;;;;;;;;;4991670;28;20535;-78
2023/04/15 12:03:28;;;;;;;3.72;0.85;;;;;;;;;;4992758;28;20084;-79
2023/04/15 12:06:06;;;;;;;2.78;0.95;;;;;;;;;;4991886;28;20407;-77
2023/04/15 12:09:00;;;;;;;3.45;1.10;;;;;;;;;;4992609;28;20038;-79
2023/04/15 12:11:28;;;;;;;2.47;0.73;;;;;;;;;;4991653;28;20038;-78
2023/04/15 12:13:55;;;;;;;3.10;0.95;;;;;;;;;;4992053;28;20125;-76
2023/04/15 12:16:23;;;;;;;4.57;1.40;;;;;;;;;;5008046;28;20486;-77
2023/04/15 12:18:52;;;;;;;2.10;0.88;;;;;;;;;;5007763;28;20034;-78
2023/04/15 12:21:19;;;;;;;3.15;1.05;;;;;;;;;;4991413;28;20269;-77
2023/04/15 12:23:50;;;;;;;5.45;1.30;;;;;;;;;;4991755;28;20148;-76
2023/04/15 12:26:17;;;;;;;2.95;1.30;;;;;;;;;;4992726;28;20511;-75
2023/04/15 12:28:43;;;;;;;5.15;1.50;;;;;;;;;;4990891;28;20018;-79
2023/04/15 12:31:10;;;;;;;3.92;1.15;;;;;;;;;;4991627;28;20027;-78
2023/04/15 12:33:36;;;;;;;1.95;0.95;;;;;;;;;;4991050;28;20032;-77
2023/04/15 12:36:03;;;;;;;3.42;1.08;;;;;;;;;;4991887;28;20100;-78
2023/04/15 12:38:30;;;;;;;3.85;1.15;;;;;;;;;;4989420;28;20116;-77
2023/04/15 12:40:57;;;;;;;3.80;1.20;;;;;;;;;;4989910;28;20061;-78
2023/04/15 12:43:23;;;;;;;3.70;1.30;;;;;;;;;;4992111;28;20065;-78
2023/04/15 12:45:49;;;;;;;1.95;0.90;;;;;;;;;;4992282;28;20077;-76
2023/04/15 12:48:32;;;;;;;2.70;1.20;;;;;;;;;;4990733;28;20026;-79
2023/04/15 12:50:57;;;;;;;3.83;1.35;;;;;;;;;;5006133;28;20058;-79
2023/04/15 12:53:23;;;;;;;3.35;1.17;;;;;;;;;;4991836;28;20364;-77
2023/04/15 12:55:49;;;;;;;2.97;1.10;;;;;;;;;;4990417;28;20065;-78
2023/04/15 12:58:18;;;;;;;2.55;0.80;;;;;;;;;;4990510;28;20073;-78
2023/04/15 13:00:45;;;;;;;1.88;0.82;;;;;;;;;;4991916;28;20038;-78
2023/04/15 13:03:12;;;;;;;1.75;0.80;;;;;;;;;;4991623;28;20049;-78
2023/04/15 13:05:38;;;;;;;3.60;1.13;;;;;;;;;;4991766;28;20062;-78
2023/04/15 13:08:05;;;;;;;4.38;0.90;;;;;;;;;;4990042;28;20113;-76
2023/04/15 13:10:31;;;;;;;4.22;1.08;;;;;;;;;;4991856;28;20038;-77
2023/04/15 13:12:57;;;;;;;5.47;1.00;;;;;;;;;;4990538;28;20034;-78
2023/04/15 13:15:24;;;;;;;2.53;1.13;;;;;;;;;;4991850;28;20108;-78
2023/04/15 13:17:51;;;;;;;5.80;1.73;;;;;;;;;;4991669;28;20023;-76
2023/04/15 13:20:17;;;;;;;2.45;0.82;;;;;;;;;;4990718;28;20081;-79
2023/04/15 13:22:44;;;;;;;2.15;1.08;;;;;;;;;;4991815;28;20026;-79
2023/04/15 13:25:11;;;;;;;1.48;0.90;;;;;;;;;;4987309;28;20034;-77
2023/04/15 13:27:37;;;;;;;4.47;0.90;;;;;;;;;;4990789;28;20385;-79
2023/04/15 13:30:05;;;;;;;5.07;0.93;;;;;;;;;;4990696;28;20496;-78
2023/04/15 13:32:31;;;;;;;2.88;0.90;;;;;;;;;;4991393;28;20038;-77
2023/04/15 13:34:58;;;;;;;2.83;0.60;;;;;;;;;;4990779;28;20117;-79
2023/04/15 13:37:28;;;;;;;3.22;0.90;;;;;;;;;;4992039;28;20557;-79
2023/04/15 13:39:55;;;;;;;2.55;0.70;;;;;;;;;;4987418;28;20038;-77
2023/04/15 13:42:22;;;;;;;4.95;1.25;;;;;;;;;;4988495;28;20030;-77
2023/04/15 13:44:52;;;;;;;2.58;0.88;;;;;;;;;;4986077;28;20039;-80
2023/04/15 13:47:36;;;;;;;4.57;1.67;;;;;;;;;;5004096;28;20061;-76
2023/04/15 13:50:02;;;;;;;2.17;1.10;;;;;;;;;;4990166;28;20027;-76
2023/04/15 13:52:28;;;;;;;3.25;0.80;;;;;;;;;;4993301;28;20042;-76
2023/04/15 13:54:54;;;;;;;1.85;0.73;;;;;;;;;;4992555;28;20026;-76
2023/04/15 13:57:19;;;;;;;1.83;0.80;;;;;;;;;;4994834;28;20038;-77
2023/04/15 13:59:45;;;;;;;2.70;0.85;;;;;;;;;;4993809;28;20124;-77
2023/04/15 14:02:11;;;;;;;2.30;1.00;;;;;;;;;;4993851;28;20066;-77
2023/04/15 14:04:38;;;;;;;5.40;1.13;;;;;;;;;;4994258;28;20153;-78
2023/04/15 14:07:04;;;;;;;2.58;0.80;;;;;;;;;;4989879;28;20050;-78
2023/04/15 14:09:31;;;;;;;4.03;1.02;;;;;;;;;;4991768;28;20037;-77
2023/04/15 14:11:58;;;;;;;4.72;1.10;;;;;;;;;;4989429;28;20442;-77
2023/04/15 14:14:24;;;;;;;4.50;0.93;;;;;;;;;;4990552;28;20034;-77
2023/04/15 14:16:51;;;;;;;1.80;0.65;;;;;;;;;;4994358;28;20396;-76
2023/04/15 14:19:19;;;;;;;3.13;0.82;;;;;;;;;;4972456;28;20120;-78
2023/04/15 14:21:44;;;;;;;5.43;1.10;;;;;;;;;;4988806;28;20057;-79
2023/04/15 14:24:10;;;;;;;3.78;1.00;;;;;;;;;;4975438;28;20073;-77
2023/04/15 14:26:36;;;;;;;5.00;1.20;;;;;;;;;;4975479;28;20074;-77
2023/04/15 14:29:03;;;;;;;2.85;0.98;;;;;;;;;;4974773;28;20030;-78
2023/04/15 14:31:30;;;;;;;3.78;0.80;;;;;;;;;;5006758;28;20038;-77
2023/04/15 14:33:56;;;;;;;1.80;0.70;;;;;;;;;;5006940;28;20027;-78
2023/04/15 14:36:22;;;;;;;1.85;0.70;;;;;;;;;;4975861;28;20039;-79
2023/04/15 14:38:47;;;;;;;1.95;0.90;;;;;;;;;;4974213;28;20035;-79
2023/04/15 14:41:14;;;;;;;3.78;1.05;;;;;;;;;;4975672;28;20109;-80
2023/04/15 14:43:40;;;;;;;3.38;0.85;;;;;;;;;;4975517;28;20031;-76
2023/04/15 14:46:07;;;;;;;3.78;1.23;;;;;;;;;;4975582;28;20041;-79